sensor_id;sensor_type;location;lat;lon;timestamp;pressure;altitude;pressure_sealevel;temperature;humidity
77153;BME280;66124;51.146;17.072;2023-04-12T00:02:25;99795.54;;;4.20;81.90
77153;BME280;66124;51.146;17.072;2023-04-12T00:04:54;99800.00;;;4.18;82.23
77153;BME280;66124;51.146;17.072;2023-04-12T00:07:25;99800.51;;;4.16;81.94
77153;BME280;66124;51.146;17.072;2023-04-12T00:09:54;99800.44;;;4.13;82.31
77153;BME280;66124;51.146;17.072;2023-04-12T00:12:24;99797.52;;;4.11;81.99
77153;BME280;66124;51.146;17.072;2023-04-12T00:14:53;99791.33;;;4.08;82.18
77153;BME280;66124;51.146;17.072;2023-04-12T00:17:23;99785.34;;;4.06;82.07
77153;BME280;66124;51.146;17.072;2023-04-12T00:19:52;99787.50;;;4.03;82.12
77153;BME280;66124;51.146;17.072;2023-04-12T00:22:22;99791.48;;;4.01;81.99
77153;BME280;66124;51.146;17.072;2023-04-12T00:24:51;99791.32;;;4.00;82.13
77153;BME280;66124;51.146;17.072;2023-04-12T00:27:20;99789.83;;;3.99;82.08
77153;BME280;66124;51.146;17.072;2023-04-12T00:29:50;99789.60;;;3.98;82.19
77153;BME280;66124;51.146;17.072;2023-04-12T00:32:19;99789.62;;;3.96;82.02
77153;BME280;66124;51.146;17.072;2023-04-12T00:34:48;99783.69;;;3.94;82.10
77153;BME280;66124;51.146;17.072;2023-04-12T00:37:18;99787.56;;;3.92;82.09
77153;BME280;66124;51.146;17.072;2023-04-12T00:39:47;99784.83;;;3.90;82.28
77153;BME280;66124;51.146;17.072;2023-04-12T00:42:16;99783.42;;;3.88;82.25
77153;BME280;66124;51.146;17.072;2023-04-12T00:44:46;99781.86;;;3.86;82.24
77153;BME280;66124;51.146;17.072;2023-04-12T00:47:15;99784.76;;;3.85;82.40
77153;BME280;66124;51.146;17.072;2023-04-12T00:49:45;99787.75;;;3.83;82.13
77153;BME280;66124;51.146;17.072;2023-04-12T00:52:14;99784.96;;;3.81;82.38
77153;BME280;66124;51.146;17.072;2023-04-12T00:54:44;99788.75;;;3.82;82.11
77153;BME280;66124;51.146;17.072;2023-04-12T00:57:14;99789.49;;;3.81;82.41
77153;BME280;66124;51.146;17.072;2023-04-12T00:59:43;99790.85;;;3.79;82.26
77153;BME280;66124;51.146;17.072;2023-04-12T01:02:13;99788.33;;;3.77;82.49
77153;BME280;66124;51.146;17.072;2023-04-12T01:04:42;99791.79;;;3.74;82.54
77153;BME280;66124;51.146;17.072;2023-04-12T01:07:17;99791.00;;;3.73;82.38
77153;BME280;66124;51.146;17.072;2023-04-12T01:09:59;99786.64;;;3.71;82.30
77153;BME280;66124;51.146;17.072;2023-04-12T01:12:38;99781.14;;;3.69;82.33
77153;BME280;66124;51.146;17.072;2023-04-12T01:20:23;99782.35;;;3.72;82.07
77153;BME280;66124;51.146;17.072;2023-04-12T01:23:16;99778.73;;;3.70;82.08
77153;BME280;66124;51.146;17.072;2023-04-12T01:26:00;99786.43;;;3.70;82.24
77153;BME280;66124;51.146;17.072;2023-04-12T01:28:40;99784.83;;;3.68;82.28
77153;BME280;66124;51.146;17.072;2023-04-12T01:31:11;99783.05;;;3.67;82.24
77153;BME280;66124;51.146;17.072;2023-04-12T01:33:43;99788.30;;;3.66;82.28
77153;BME280;66124;51.146;17.072;2023-04-12T01:36:16;99785.48;;;3.65;82.44
77153;BME280;66124;51.146;17.072;2023-04-12T01:38:47;99786.09;;;3.63;82.28
77153;BME280;66124;51.146;17.072;2023-04-12T01:41:16;99787.06;;;3.62;81.99
77153;BME280;66124;51.146;17.072;2023-04-12T01:43:46;99786.27;;;3.61;81.89
77153;BME280;66124;51.146;17.072;2023-04-12T01:46:19;99780.92;;;3.60;82.22
77153;BME280;66124;51.146;17.072;2023-04-12T01:48:52;99787.04;;;3.60;82.39
77153;BME280;66124;51.146;17.072;2023-04-12T01:51:35;99787.04;;;3.60;82.08
77153;BME280;66124;51.146;17.072;2023-04-12T01:54:10;99783.30;;;3.61;82.02
77153;BME280;66124;51.146;17.072;2023-04-12T01:56:42;99778.10;;;3.62;82.18
77153;BME280;66124;51.146;17.072;2023-04-12T01:59:14;99776.42;;;3.63;82.27
77153;BME280;66124;51.146;17.072;2023-04-12T02:01:44;99776.10;;;3.65;82.17
77153;BME280;66124;51.146;17.072;2023-04-12T02:04:15;99769.15;;;3.65;82.25
77153;BME280;66124;51.146;17.072;2023-04-12T02:06:46;99764.63;;;3.65;82.11
77153;BME280;66124;51.146;17.072;2023-04-12T02:09:16;99762.26;;;3.64;82.05
77153;BME280;66124;51.146;17.072;2023-04-12T02:11:48;99769.91;;;3.62;81.97
77153;BME280;66124;51.146;17.072;2023-04-12T02:14:17;99766.17;;;3.60;82.23
77153;BME280;66124;51.146;17.072;2023-04-12T02:16:47;99763.25;;;3.58;82.14
77153;BME280;66124;51.146;17.072;2023-04-12T02:19:16;99760.61;;;3.54;82.17
77153;BME280;66124;51.146;17.072;2023-04-12T02:21:46;99760.81;;;3.52;82.18
77153;BME280;66124;51.146;17.072;2023-04-12T02:24:15;99754.91;;;3.48;82.27
77153;BME280;66124;51.146;17.072;2023-04-12T02:26:45;99757.28;;;3.45;82.42
77153;BME280;66124;51.146;17.072;2023-04-12T02:29:14;99744.36;;;3.37;82.16
77153;BME280;66124;51.146;17.072;2023-04-12T02:31:43;99753.13;;;3.38;82.33
77153;BME280;66124;51.146;17.072;2023-04-12T02:40:00;99745.41;;;3.35;82.54
77153;BME280;66124;51.146;17.072;2023-04-12T02:42:29;99745.05;;;3.32;82.53
77153;BME280;66124;51.146;17.072;2023-04-12T02:44:58;99745.27;;;3.31;82.35
77153;BME280;66124;51.146;17.072;2023-04-12T02:47:28;99745.45;;;3.29;82.55
77153;BME280;66124;51.146;17.072;2023-04-12T02:49:57;99740.15;;;3.29;82.28
77153;BME280;66124;51.146;17.072;2023-04-12T02:52:28;99733.69;;;3.27;82.49
77153;BME280;66124;51.146;17.072;2023-04-12T02:54:58;99728.77;;;3.24;82.58
77153;BME280;66124;51.146;17.072;2023-04-12T02:57:27;99728.09;;;3.24;82.60
77153;BME280;66124;51.146;17.072;2023-04-12T02:59:57;99723.95;;;3.22;82.30
77153;BME280;66124;51.146;17.072;2023-04-12T03:02:26;99723.44;;;3.20;82.82
77153;BME280;66124;51.146;17.072;2023-04-12T03:04:55;99720.41;;;3.17;82.68
77153;BME280;66124;51.146;17.072;2023-04-12T03:07:25;99720.41;;;3.15;82.84
77153;BME280;66124;51.146;17.072;2023-04-12T03:09:55;99721.41;;;3.14;82.60
77153;BME280;66124;51.146;17.072;2023-04-12T03:12:24;99723.91;;;3.11;82.65
77153;BME280;66124;51.146;17.072;2023-04-12T03:14:54;99721.35;;;3.09;82.82
77153;BME280;66124;51.146;17.072;2023-04-12T03:17:23;99720.77;;;3.06;82.85
77153;BME280;66124;51.146;17.072;2023-04-12T03:19:53;99716.05;;;3.05;82.79
77153;BME280;66124;51.146;17.072;2023-04-12T03:22:22;99715.08;;;3.02;82.99
77153;BME280;66124;51.146;17.072;2023-04-12T03:24:51;99715.80;;;3.00;82.93
77153;BME280;66124;51.146;17.072;2023-04-12T03:27:21;99720.98;;;2.98;82.94
77153;BME280;66124;51.146;17.072;2023-04-12T03:29:50;99720.21;;;2.97;82.69
77153;BME280;66124;51.146;17.072;2023-04-12T03:32:19;99714.52;;;2.95;82.77
77153;BME280;66124;51.146;17.072;2023-04-12T03:34:49;99717.92;;;2.92;82.81
77153;BME280;66124;51.146;17.072;2023-04-12T03:37:18;99721.98;;;2.90;83.03
77153;BME280;66124;51.146;17.072;2023-04-12T03:39:48;99727.50;;;2.86;82.86
77153;BME280;66124;51.146;17.072;2023-04-12T03:42:17;99725.20;;;2.85;83.01
77153;BME280;66124;51.146;17.072;2023-04-12T03:44:46;99723.94;;;2.83;83.10
77153;BME280;66124;51.146;17.072;2023-04-12T03:47:16;99727.55;;;2.82;83.14
77153;BME280;66124;51.146;17.072;2023-04-12T03:49:45;99733.95;;;2.80;83.07
77153;BME280;66124;51.146;17.072;2023-04-12T03:52:13;99726.45;;;2.77;83.12
77153;BME280;66124;51.146;17.072;2023-04-12T03:59:51;99736.77;;;2.74;83.21
77153;BME280;66124;51.146;17.072;2023-04-12T04:02:21;99738.92;;;2.72;83.43
77153;BME280;66124;51.146;17.072;2023-04-12T04:04:51;99731.85;;;2.71;83.11
77153;BME280;66124;51.146;17.072;2023-04-12T04:07:20;99731.50;;;2.70;83.34
77153;BME280;66124;51.146;17.072;2023-04-12T04:09:51;99736.08;;;2.71;83.55
77153;BME280;66124;51.146;17.072;2023-04-12T04:12:22;99737.14;;;2.70;83.41
77153;BME280;66124;51.146;17.072;2023-04-12T04:14:51;99736.54;;;2.69;83.49
77153;BME280;66124;51.146;17.072;2023-04-12T04:17:21;99729.88;;;2.68;83.32
77153;BME280;66124;51.146;17.072;2023-04-12T04:19:50;99735.52;;;2.69;83.38
77153;BME280;66124;51.146;17.072;2023-04-12T04:22:20;99731.20;;;2.69;83.29
77153;BME280;66124;51.146;17.072;2023-04-12T04:24:49;99725.98;;;2.71;83.19
77153;BME280;66124;51.146;17.072;2023-04-12T04:27:18;99721.19;;;2.68;83.39
77153;BME280;66124;51.146;17.072;2023-04-12T04:29:48;99722.16;;;2.73;83.45
77153;BME280;66124;51.146;17.072;2023-04-12T04:32:17;99721.42;;;2.75;83.61
77153;BME280;66124;51.146;17.072;2023-04-12T04:34:47;99719.67;;;2.77;83.59
77153;BME280;66124;51.146;17.072;2023-04-12T04:37:16;99726.04;;;2.80;83.41
77153;BME280;66124;51.146;17.072;2023-04-12T04:39:45;99728.80;;;2.81;83.36
77153;BME280;66124;51.146;17.072;2023-04-12T04:42:15;99731.47;;;2.83;83.40
77153;BME280;66124;51.146;17.072;2023-04-12T04:44:44;99734.98;;;2.86;83.27
77153;BME280;66124;51.146;17.072;2023-04-12T04:47:14;99734.34;;;2.89;83.40
77153;BME280;66124;51.146;17.072;2023-04-12T04:49:44;99735.05;;;2.93;83.16
77153;BME280;66124;51.146;17.072;2023-04-12T04:52:13;99731.84;;;2.97;83.25
77153;BME280;66124;51.146;17.072;2023-04-12T04:54:42;99733.63;;;3.02;82.88
77153;BME280;66124;51.146;17.072;2023-04-12T04:57:12;99735.36;;;3.08;83.21
77153;BME280;66124;51.146;17.072;2023-04-12T04:59:41;99732.88;;;3.17;83.20
77153;BME280;66124;51.146;17.072;2023-04-12T05:02:11;99730.80;;;3.26;83.05
77153;BME280;66124;51.146;17.072;2023-04-12T05:04:41;99733.45;;;3.37;83.01
77153;BME280;66124;51.146;17.072;2023-04-12T05:07:10;99729.15;;;3.49;82.78
77153;BME280;66124;51.146;17.072;2023-04-12T05:09:38;99726.35;;;3.60;82.74
77153;BME280;66124;51.146;17.072;2023-04-12T05:15:08;99717.69;;;3.86;82.46
77153;BME280;66124;51.146;17.072;2023-04-12T05:17:38;99715.96;;;4.12;82.16
77153;BME280;66124;51.146;17.072;2023-04-12T05:20:09;99715.77;;;4.49;82.03
77153;BME280;66124;51.146;17.072;2023-04-12T05:22:39;99713.04;;;4.79;81.81
77153;BME280;66124;51.146;17.072;2023-04-12T05:25:09;99706.25;;;4.91;81.66
77153;BME280;66124;51.146;17.072;2023-04-12T05:27:39;99700.94;;;5.02;81.28
77153;BME280;66124;51.146;17.072;2023-04-12T05:30:10;99696.23;;;5.16;81.06
77153;BME280;66124;51.146;17.072;2023-04-12T05:32:39;99691.79;;;5.28;80.45
77153;BME280;66124;51.146;17.072;2023-04-12T05:35:09;99691.95;;;5.38;80.24
77153;BME280;66124;51.146;17.072;2023-04-12T05:37:39;99687.26;;;5.38;80.15
77153;BME280;66124;51.146;17.072;2023-04-12T05:40:10;99699.65;;;5.54;79.96
77153;BME280;66124;51.146;17.072;2023-04-12T05:42:39;99696.89;;;5.64;79.57
77153;BME280;66124;51.146;17.072;2023-04-12T05:45:10;99698.02;;;5.67;79.46
77153;BME280;66124;51.146;17.072;2023-04-12T05:47:39;99692.28;;;5.66;79.32
77153;BME280;66124;51.146;17.072;2023-04-12T05:50:10;99695.23;;;5.67;79.03
77153;BME280;66124;51.146;17.072;2023-04-12T05:52:40;99695.59;;;5.66;79.05
77153;BME280;66124;51.146;17.072;2023-04-12T05:55:09;99697.59;;;5.67;78.91
77153;BME280;66124;51.146;17.072;2023-04-12T05:57:39;99694.08;;;5.67;78.45
77153;BME280;66124;51.146;17.072;2023-04-12T06:00:10;99695.02;;;5.70;78.60
77153;BME280;66124;51.146;17.072;2023-04-12T06:02:40;99698.48;;;5.75;78.45
77153;BME280;66124;51.146;17.072;2023-04-12T06:05:10;99697.52;;;5.79;78.26
77153;BME280;66124;51.146;17.072;2023-04-12T06:07:40;99704.05;;;5.82;78.42
77153;BME280;66124;51.146;17.072;2023-04-12T06:10:10;99701.13;;;5.85;78.16
77153;BME280;66124;51.146;17.072;2023-04-12T06:12:40;99697.02;;;5.89;77.98
77153;BME280;66124;51.146;17.072;2023-04-12T06:15:11;99693.69;;;5.92;78.13
77153;BME280;66124;51.146;17.072;2023-04-12T06:17:40;99696.11;;;5.97;77.95
77153;BME280;66124;51.146;17.072;2023-04-12T06:20:11;99692.58;;;6.06;77.82
77153;BME280;66124;51.146;17.072;2023-04-12T06:22:41;99695.17;;;6.16;77.90
77153;BME280;66124;51.146;17.072;2023-04-12T06:25:09;99694.64;;;6.28;77.72
77153;BME280;66124;51.146;17.072;2023-04-12T06:27:36;99693.61;;;6.42;77.49
77153;BME280;66124;51.146;17.072;2023-04-12T06:35:00;99694.25;;;6.72;77.04
77153;BME280;66124;51.146;17.072;2023-04-12T06:37:29;99694.77;;;6.79;77.03
77153;BME280;66124;51.146;17.072;2023-04-12T06:39:59;99693.81;;;6.87;76.74
77153;BME280;66124;51.146;17.072;2023-04-12T06:42:28;99690.54;;;6.97;76.83
77153;BME280;66124;51.146;17.072;2023-04-12T06:44:58;99690.20;;;7.08;76.53
77153;BME280;66124;51.146;17.072;2023-04-12T06:47:28;99689.38;;;7.19;76.34
77153;BME280;66124;51.146;17.072;2023-04-12T06:49:58;99688.42;;;7.30;76.29
77153;BME280;66124;51.146;17.072;2023-04-12T06:52:27;99685.94;;;7.38;75.95
77153;BME280;66124;51.146;17.072;2023-04-12T06:54:57;99682.84;;;7.47;75.63
77153;BME280;66124;51.146;17.072;2023-04-12T06:57:26;99683.98;;;7.54;75.44
77153;BME280;66124;51.146;17.072;2023-04-12T06:59:56;99684.50;;;7.60;75.53
77153;BME280;66124;51.146;17.072;2023-04-12T07:02:25;99687.61;;;7.68;75.23
77153;BME280;66124;51.146;17.072;2023-04-12T07:04:54;99684.79;;;7.78;75.13
77153;BME280;66124;51.146;17.072;2023-04-12T07:07:24;99680.73;;;7.87;75.01
77153;BME280;66124;51.146;17.072;2023-04-12T07:09:53;99679.41;;;7.98;74.79
77153;BME280;66124;51.146;17.072;2023-04-12T07:12:23;99678.70;;;8.09;74.66
77153;BME280;66124;51.146;17.072;2023-04-12T07:14:52;99672.05;;;8.19;74.55
77153;BME280;66124;51.146;17.072;2023-04-12T07:17:22;99668.70;;;8.30;74.36
77153;BME280;66124;51.146;17.072;2023-04-12T07:19:52;99669.50;;;8.37;73.78
77153;BME280;66124;51.146;17.072;2023-04-12T07:22:22;99664.63;;;8.38;73.48
77153;BME280;66124;51.146;17.072;2023-04-12T07:24:51;99662.27;;;8.34;73.33
77153;BME280;66124;51.146;17.072;2023-04-12T07:27:21;99658.79;;;8.34;73.37
77153;BME280;66124;51.146;17.072;2023-04-12T07:29:51;99657.30;;;8.40;73.31
77153;BME280;66124;51.146;17.072;2023-04-12T07:32:20;99660.79;;;8.48;72.96
77153;BME280;66124;51.146;17.072;2023-04-12T07:34:50;99656.33;;;8.56;72.89
77153;BME280;66124;51.146;17.072;2023-04-12T07:37:19;99653.30;;;8.64;72.57
77153;BME280;66124;51.146;17.072;2023-04-12T07:39:49;99646.80;;;8.73;72.76
77153;BME280;66124;51.146;17.072;2023-04-12T07:42:18;99643.71;;;8.82;72.46
77153;BME280;66124;51.146;17.072;2023-04-12T07:44:48;99647.80;;;8.91;72.15
77153;BME280;66124;51.146;17.072;2023-04-12T07:47:16;99647.07;;;8.98;71.92
77153;BME280;66124;51.146;17.072;2023-04-12T07:54:52;99633.73;;;9.33;71.01
77153;BME280;66124;51.146;17.072;2023-04-12T07:57:22;99636.09;;;9.45;70.66
77153;BME280;66124;51.146;17.072;2023-04-12T07:59:51;99630.00;;;9.59;70.50
77153;BME280;66124;51.146;17.072;2023-04-12T08:02:21;99627.01;;;9.76;70.33
77153;BME280;66124;51.146;17.072;2023-04-12T08:04:50;99630.02;;;9.94;70.21
77153;BME280;66124;51.146;17.072;2023-04-12T08:07:21;99629.62;;;10.13;69.73
77153;BME280;66124;51.146;17.072;2023-04-12T08:09:51;99627.48;;;10.29;69.03
77153;BME280;66124;51.146;17.072;2023-04-12T08:12:20;99626.79;;;10.46;68.74
77153;BME280;66124;51.146;17.072;2023-04-12T08:14:50;99630.05;;;10.59;68.30
77153;BME280;66124;51.146;17.072;2023-04-12T08:17:19;99627.89;;;10.58;67.31
77153;BME280;66124;51.146;17.072;2023-04-12T08:19:48;99629.47;;;10.47;66.87
77153;BME280;66124;51.146;17.072;2023-04-12T08:22:18;99621.56;;;10.34;66.70
77153;BME280;66124;51.146;17.072;2023-04-12T08:24:47;99621.47;;;10.27;66.59
77153;BME280;66124;51.146;17.072;2023-04-12T08:27:17;99625.15;;;10.27;66.69
77153;BME280;66124;51.146;17.072;2023-04-12T08:29:46;99618.02;;;10.28;65.63
77153;BME280;66124;51.146;17.072;2023-04-12T08:32:16;99614.71;;;10.24;65.68
77153;BME280;66124;51.146;17.072;2023-04-12T08:34:45;99612.36;;;10.17;65.53
77153;BME280;66124;51.146;17.072;2023-04-12T08:37:15;99609.67;;;10.05;65.14
77153;BME280;66124;51.146;17.072;2023-04-12T08:39:44;99610.59;;;10.02;64.94
77153;BME280;66124;51.146;17.072;2023-04-12T08:42:14;99610.98;;;10.00;64.73
77153;BME280;66124;51.146;17.072;2023-04-12T08:44:44;99605.27;;;10.00;64.25
77153;BME280;66124;51.146;17.072;2023-04-12T08:47:14;99601.65;;;10.04;64.18
77153;BME280;66124;51.146;17.072;2023-04-12T08:49:45;99603.23;;;10.13;64.32
77153;BME280;66124;51.146;17.072;2023-04-12T08:52:14;99598.80;;;10.16;64.19
77153;BME280;66124;51.146;17.072;2023-04-12T08:54:43;99600.34;;;10.19;63.90
77153;BME280;66124;51.146;17.072;2023-04-12T08:57:14;99602.94;;;10.20;63.99
77153;BME280;66124;51.146;17.072;2023-04-12T08:59:44;99601.83;;;10.18;63.61
77153;BME280;66124;51.146;17.072;2023-04-12T09:02:15;99597.83;;;10.15;63.53
77153;BME280;66124;51.146;17.072;2023-04-12T09:04:51;99593.00;;;10.15;63.66
77153;BME280;66124;51.146;17.072;2023-04-12T09:07:19;99594.56;;;10.16;63.45
77153;BME280;66124;51.146;17.072;2023-04-12T09:14:36;99594.45;;;10.30;63.28
77153;BME280;66124;51.146;17.072;2023-04-12T09:17:06;99590.40;;;10.30;63.27
77153;BME280;66124;51.146;17.072;2023-04-12T09:19:49;99586.56;;;10.31;62.94
77153;BME280;66124;51.146;17.072;2023-04-12T09:22:18;99586.48;;;10.34;62.76
77153;BME280;66124;51.146;17.072;2023-04-12T09:25:00;99582.03;;;10.41;62.59
77153;BME280;66124;51.146;17.072;2023-04-12T09:27:30;99578.34;;;10.55;62.58
77153;BME280;66124;51.146;17.072;2023-04-12T09:30:15;99578.56;;;10.67;61.37
77153;BME280;66124;51.146;17.072;2023-04-12T09:32:46;99578.47;;;10.73;61.64
77153;BME280;66124;51.146;17.072;2023-04-12T09:35:15;99575.83;;;10.80;61.53
77153;BME280;66124;51.146;17.072;2023-04-12T09:37:45;99576.08;;;10.92;61.54
77153;BME280;66124;51.146;17.072;2023-04-12T09:40:14;99570.48;;;11.06;60.94
77153;BME280;66124;51.146;17.072;2023-04-12T09:42:51;99563.80;;;11.22;61.16
77153;BME280;66124;51.146;17.072;2023-04-12T09:45:23;99556.16;;;11.41;60.42
77153;BME280;66124;51.146;17.072;2023-04-12T09:47:53;99551.64;;;11.57;60.63
77153;BME280;66124;51.146;17.072;2023-04-12T09:50:25;99550.32;;;11.69;60.28
77153;BME280;66124;51.146;17.072;2023-04-12T09:52:55;99548.54;;;11.79;59.85
77153;BME280;66124;51.146;17.072;2023-04-12T09:55:26;99548.84;;;11.79;59.49
77153;BME280;66124;51.146;17.072;2023-04-12T09:57:56;99544.52;;;11.77;59.73
77153;BME280;66124;51.146;17.072;2023-04-12T10:00:30;99543.21;;;11.78;59.17
77153;BME280;66124;51.146;17.072;2023-04-12T10:03:00;99538.95;;;11.77;58.85
77153;BME280;66124;51.146;17.072;2023-04-12T10:05:30;99531.92;;;11.73;58.81
77153;BME280;66124;51.146;17.072;2023-04-12T10:08:00;99529.15;;;11.70;58.44
77153;BME280;66124;51.146;17.072;2023-04-12T10:10:29;99524.65;;;11.62;58.17
77153;BME280;66124;51.146;17.072;2023-04-12T10:13:00;99519.08;;;11.50;58.09
77153;BME280;66124;51.146;17.072;2023-04-12T10:15:29;99516.88;;;11.45;58.40
77153;BME280;66124;51.146;17.072;2023-04-12T10:18:02;99511.45;;;11.46;58.33
77153;BME280;66124;51.146;17.072;2023-04-12T10:20:32;99511.40;;;11.48;58.38
77153;BME280;66124;51.146;17.072;2023-04-12T10:23:02;99506.41;;;11.58;58.36
77153;BME280;66124;51.146;17.072;2023-04-12T10:26:21;99501.84;;;11.80;58.16
77153;BME280;66124;51.146;17.072;2023-04-12T10:29:24;99501.35;;;11.92;57.93
77153;BME280;66124;51.146;17.072;2023-04-12T10:31:56;99494.58;;;12.04;56.78
77153;BME280;66124;51.146;17.072;2023-04-12T10:34:31;99497.06;;;12.16;56.39
77153;BME280;66124;51.146;17.072;2023-04-12T10:37:01;99500.17;;;12.26;56.01
77153;BME280;66124;51.146;17.072;2023-04-12T10:39:44;99497.55;;;12.38;55.89
77153;BME280;66124;51.146;17.072;2023-04-12T10:42:25;99490.04;;;12.54;55.45
77153;BME280;66124;51.146;17.072;2023-04-12T10:48:01;99487.27;;;13.08;54.19
77153;BME280;66124;51.146;17.072;2023-04-12T10:50:42;99484.61;;;13.28;53.71
77153;BME280;66124;51.146;17.072;2023-04-12T10:53:28;99476.23;;;13.52;53.18
77153;BME280;66124;51.146;17.072;2023-04-12T10:56:00;99476.13;;;13.69;51.79
77153;BME280;66124;51.146;17.072;2023-04-12T10:58:59;99473.36;;;13.78;51.72
77153;BME280;66124;51.146;17.072;2023-04-12T11:01:32;99469.08;;;13.87;51.63
77153;BME280;66124;51.146;17.072;2023-04-12T11:04:12;99464.12;;;13.88;51.39
77153;BME280;66124;51.146;17.072;2023-04-12T11:07:05;99461.92;;;13.92;51.16
77153;BME280;66124;51.146;17.072;2023-04-12T11:09:41;99459.14;;;13.93;51.27
77153;BME280;66124;51.146;17.072;2023-04-12T11:12:15;99453.44;;;14.05;51.37
77153;BME280;66124;51.146;17.072;2023-04-12T11:15:02;99441.09;;;14.14;51.49
77153;BME280;66124;51.146;17.072;2023-04-12T11:17:34;99435.08;;;14.26;50.91
77153;BME280;66124;51.146;17.072;2023-04-12T11:20:05;99434.62;;;14.48;50.65
77153;BME280;66124;51.146;17.072;2023-04-12T11:22:45;99426.84;;;14.78;49.90
77153;BME280;66124;51.146;17.072;2023-04-12T11:25:19;99426.70;;;15.16;48.69
77153;BME280;66124;51.146;17.072;2023-04-12T11:30:50;99429.52;;;15.95;47.91
77153;BME280;66124;51.146;17.072;2023-04-12T11:33:39;99422.55;;;16.33;47.32
77153;BME280;66124;51.146;17.072;2023-04-12T11:36:08;99411.71;;;16.63;46.58
77153;BME280;66124;51.146;17.072;2023-04-12T11:38:37;99408.47;;;16.96;46.37
77153;BME280;66124;51.146;17.072;2023-04-12T11:49:28;99405.16;;;18.53;43.29
77153;BME280;66124;51.146;17.072;2023-04-12T11:52:05;99397.12;;;18.81;42.53
77153;BME280;66124;51.146;17.072;2023-04-12T11:54:35;99391.65;;;19.04;42.22
77153;BME280;66124;51.146;17.072;2023-04-12T11:57:09;99389.55;;;19.32;41.97
77153;BME280;66124;51.146;17.072;2023-04-12T11:59:41;99385.02;;;19.65;41.31
77153;BME280;66124;51.146;17.072;2023-04-12T12:02:12;99381.72;;;19.83;40.32
77153;BME280;66124;51.146;17.072;2023-04-12T12:04:45;99376.18;;;19.53;39.83
77153;BME280;66124;51.146;17.072;2023-04-12T12:07:16;99361.25;;;19.32;39.65
77153;BME280;66124;51.146;17.072;2023-04-12T12:09:46;99360.71;;;19.24;38.95
77153;BME280;66124;51.146;17.072;2023-04-12T12:12:23;99356.67;;;19.20;38.82
77153;BME280;66124;51.146;17.072;2023-04-12T12:14:54;99355.49;;;19.40;39.01
77153;BME280;66124;51.146;17.072;2023-04-12T12:17:28;99351.48;;;19.66;37.65
77153;BME280;66124;51.146;17.072;2023-04-12T12:19:59;99346.89;;;19.77;37.36
77153;BME280;66124;51.146;17.072;2023-04-12T12:22:34;99336.52;;;20.03;37.65
77153;BME280;66124;51.146;17.072;2023-04-12T12:25:07;99340.34;;;20.33;37.31
77153;BME280;66124;51.146;17.072;2023-04-12T12:27:38;99331.81;;;20.54;37.26
77153;BME280;66124;51.146;17.072;2023-04-12T12:30:17;99327.73;;;20.79;37.25
77153;BME280;66124;51.146;17.072;2023-04-12T12:32:54;99326.70;;;21.23;37.34
77153;BME280;66124;51.146;17.072;2023-04-12T12:35:25;99328.24;;;21.58;36.22
77153;BME280;66124;51.146;17.072;2023-04-12T12:37:55;99326.47;;;21.36;35.29
77153;BME280;66124;51.146;17.072;2023-04-12T12:40:30;99322.14;;;20.89;35.79
77153;BME280;66124;51.146;17.072;2023-04-12T12:43:02;99317.22;;;20.82;35.67
77153;BME280;66124;51.146;17.072;2023-04-12T12:45:33;99314.75;;;20.98;35.45
77153;BME280;66124;51.146;17.072;2023-04-12T12:48:05;99317.84;;;21.33;35.37
77153;BME280;66124;51.146;17.072;2023-04-12T12:50:43;99311.95;;;21.70;34.91
77153;BME280;66124;51.146;17.072;2023-04-12T12:53:14;99307.86;;;22.05;34.45
77153;BME280;66124;51.146;17.072;2023-04-12T12:55:45;99305.45;;;22.23;33.57
77153;BME280;66124;51.146;17.072;2023-04-12T12:58:19;99294.14;;;22.45;33.55
77153;BME280;66124;51.146;17.072;2023-04-12T13:00:47;99293.79;;;22.94;33.42
77153;BME280;66124;51.146;17.072;2023-04-12T13:14:59;99281.86;;;23.76;31.05
77153;BME280;66124;51.146;17.072;2023-04-12T13:17:29;99274.70;;;23.28;31.16
77153;BME280;66124;51.146;17.072;2023-04-12T13:20:00;99271.92;;;23.36;31.01
77153;BME280;66124;51.146;17.072;2023-04-12T13:22:37;99266.95;;;23.44;29.22
77153;BME280;66124;51.146;17.072;2023-04-12T13:25:10;99263.86;;;23.03;29.82
77153;BME280;66124;51.146;17.072;2023-04-12T13:27:55;99264.45;;;23.10;30.43
77153;BME280;66124;51.146;17.072;2023-04-12T13:30:25;99256.82;;;23.59;30.63
77153;BME280;66124;51.146;17.072;2023-04-12T13:32:59;99247.69;;;24.23;30.21
77153;BME280;66124;51.146;17.072;2023-04-12T13:35:30;99239.30;;;24.64;29.71
77153;BME280;66124;51.146;17.072;2023-04-12T13:38:21;99242.73;;;25.14;29.74
77153;BME280;66124;51.146;17.072;2023-04-12T13:40:51;99233.13;;;25.88;29.13
77153;BME280;66124;51.146;17.072;2023-04-12T13:43:29;99220.59;;;26.32;28.26
77153;BME280;66124;51.146;17.072;2023-04-12T13:45:59;99219.35;;;26.40;27.48
77153;BME280;66124;51.146;17.072;2023-04-12T13:48:28;99214.75;;;26.45;27.29
77153;BME280;66124;51.146;17.072;2023-04-12T13:50:59;99209.96;;;26.53;27.43
77153;BME280;66124;51.146;17.072;2023-04-12T13:53:31;99204.30;;;26.82;27.78
77153;BME280;66124;51.146;17.072;2023-04-12T13:56:03;99200.36;;;27.26;26.86
77153;BME280;66124;51.146;17.072;2023-04-12T13:58:35;99196.63;;;27.44;26.65
77153;BME280;66124;51.146;17.072;2023-04-12T14:01:18;99190.64;;;27.78;26.18
77153;BME280;66124;51.146;17.072;2023-04-12T14:03:48;99191.00;;;27.94;25.51
77153;BME280;66124;51.146;17.072;2023-04-12T14:06:19;99191.73;;;28.01;25.50
77153;BME280;66124;51.146;17.072;2023-04-12T14:08:49;99187.55;;;28.11;25.16
77153;BME280;66124;51.146;17.072;2023-04-12T14:11:21;99181.80;;;27.99;24.79
77153;BME280;66124;51.146;17.072;2023-04-12T14:13:57;99181.17;;;27.91;24.97
77153;BME280;66124;51.146;17.072;2023-04-12T14:16:27;99172.79;;;28.10;25.06
77153;BME280;66124;51.146;17.072;2023-04-12T14:18:57;99167.77;;;28.51;25.12